sensor_id;sensor_type;location;lat;lon;timestamp;pressure;altitude;pressure_sealevel;temperature;humidity
66666;BME280;53566;50.814;20.688;2022-07-09T00:00:02;102186.66;;;13.08;83.14
66666;BME280;53566;50.814;20.688;2022-07-09T00:07:18;102086.72;;;13.010000000000002;82.96
66666;BME280;53566;50.814;20.688;2022-07-09T00:14:16;102284.63;;;12.97;83.72
66666;BME280;53566;50.814;20.688;2022-07-09T00:21:08;102250.64;;;12.83;83.31
66666;BME280;53566;50.814;20.688;2022-07-09T00:28:15;102245.19;;;12.85;84.17
66666;BME280;53566;50.814;20.688;2022-07-09T00:35:17;102202.42;;;12.72;84.24000000000001
66666;BME280;53566;50.814;20.688;2022-07-09T00:42:14;102153.46;;;12.659999999999998;83.78
66666;BME280;53566;50.814;20.688;2022-07-09T00:49:24;102167.52;;;12.6;84.28999999999999
66666;BME280;53566;50.814;20.688;2022-07-09T00:56:02;102295.61;;;12.57;84.6
66666;BME280;53566;50.814;20.688;2022-07-09T01:00:19;102271.16;;;12.49;84.36
66666;BME280;53566;50.814;20.688;2022-07-09T01:07:06;102218.07;;;12.52;84.55
66666;BME280;53566;50.814;20.688;2022-07-09T01:14:17;102138.73;;;12.639999999999999;84.7
66666;BME280;53566;50.814;20.688;2022-07-09T01:21:06;102246.42;;;12.6;85.02
66666;BME280;53566;50.814;20.688;2022-07-09T01:28:10;102118.16;;;12.530000000000001;85.22
66666;BME280;53566;50.814;20.688;2022-07-09T01:35:16;102271.56;;;12.43;86.02
66666;BME280;53566;50.814;20.688;2022-07-09T01:42:15;102093.15;;;12.34;85.6
66666;BME280;53566;50.814;20.688;2022-07-09T01:49:20;102268.5;;;12.37;86.24
66666;BME280;53566;50.814;20.688;2022-07-09T01:56:21;102212.72;;;12.24;86.65
66666;BME280;53566;50.814;20.688;2022-07-09T02:00:12;102130.73;;;12.139999999999999;86.78
66666;BME280;53566;50.814;20.688;2022-07-09T02:07:19;102180.15;;;12.08;87.3
66666;BME280;53566;50.814;20.688;2022-07-09T02:14:14;102223.87;;;12.05;87.66
66666;BME280;53566;50.814;20.688;2022-07-09T02:21:19;102265.83;;;12.02;87.69
66666;BME280;53566;50.814;20.688;2022-07-09T02:28:02;102233.17;;;11.94;87.61
66666;BME280;53566;50.814;20.688;2022-07-09T02:35:06;102146.49;;;11.89;87.43
66666;BME280;53566;50.814;20.688;2022-07-09T02:42:07;102236.15;;;11.92;88.12
66666;BME280;53566;50.814;20.688;2022-07-09T02:49:06;102209.17;;;11.89;88.1
66666;BME280;53566;50.814;20.688;2022-07-09T02:56:13;102088.48;;;11.82;89.05
66666;BME280;53566;50.814;20.688;2022-07-09T03:00:04;102222.15;;;11.799999999999999;88.85
66666;BME280;53566;50.814;20.688;2022-07-09T03:07:17;102212.52;;;11.7;88.91
66666;BME280;53566;50.814;20.688;2022-07-09T03:14:03;102083.56;;;11.690000000000001;89.87
66666;BME280;53566;50.814;20.688;2022-07-09T03:21:18;102203.83;;;11.69;89.58
66666;BME280;53566;50.814;20.688;2022-07-09T03:28:05;102185.86;;;11.63;90.6
66666;BME280;53566;50.814;20.688;2022-07-09T03:35:20;102104.56;;;11.57;90.82
66666;BME280;53566;50.814;20.688;2022-07-09T03:42:03;102200.56;;;11.559999999999999;91.14
66666;BME280;53566;50.814;20.688;2022-07-09T03:49:21;102190.72;;;11.620000000000001;90.4
66666;BME280;53566;50.814;20.688;2022-07-09T03:56:03;102047.84;;;11.690000000000001;91.07
66666;BME280;53566;50.814;20.688;2022-07-09T04:00:04;102179.44;;;11.77;90.44
66666;BME280;53566;50.814;20.688;2022-07-09T04:07:06;102133.49;;;11.77;91.03
66666;BME280;53566;50.814;20.688;2022-07-09T04:14:05;102038.65;;;11.83;91.11
66666;BME280;53566;50.814;20.688;2022-07-09T04:21:23;102170.69;;;11.96;90.64
66666;BME280;53566;50.814;20.688;2022-07-09T04:28:18;102056.48;;;11.95;90.77
66666;BME280;53566;50.814;20.688;2022-07-09T04:35:10;102027.25;;;12.17;91.09
66666;BME280;53566;50.814;20.688;2022-07-09T04:42:22;102085.21;;;12.2;91.15
66666;BME280;53566;50.814;20.688;2022-07-09T04:49:03;102028.51;;;12.389999999999999;90.72
66666;BME280;53566;50.814;20.688;2022-07-09T04:56:07;102159.91;;;12.65;90.73
66666;BME280;53566;50.814;20.688;2022-07-09T05:00:13;102099.63;;;12.950000000000001;90.03
66666;BME280;53566;50.814;20.688;2022-07-09T05:07:12;102098.67;;;13.25;90.21
66666;BME280;53566;50.814;20.688;2022-07-09T05:14:15;102164.27;;;13.379999999999999;90.3
66666;BME280;53566;50.814;20.688;2022-07-09T05:21:07;102202.13;;;13.889999999999999;89.8
66666;BME280;53566;50.814;20.688;2022-07-09T05:28:14;102082.6;;;14.01;89.53999999999999
66666;BME280;53566;50.814;20.688;2022-07-09T05:35:21;102077.53;;;14.29;88.99000000000001
66666;BME280;53566;50.814;20.688;2022-07-09T05:42:05;102042.27;;;14.41;88.47999999999999
66666;BME280;53566;50.814;20.688;2022-07-09T05:49:02;102224.77;;;14.56;88.58
66666;BME280;53566;50.814;20.688;2022-07-09T05:56:18;102165.39;;;14.590000000000002;88.7
66666;BME280;53566;50.814;20.688;2022-07-09T06:00:23;102060.74;;;14.51;88.25
66666;BME280;53566;50.814;20.688;2022-07-09T06:07:06;102069.63;;;14.629999999999999;87.26
66666;BME280;53566;50.814;20.688;2022-07-09T06:14:03;102104.47;;;14.690000000000001;87.2
66666;BME280;53566;50.814;20.688;2022-07-09T06:21:03;102216.72;;;14.85;86.19
66666;BME280;53566;50.814;20.688;2022-07-09T06:28:18;102055.46;;;15.049999999999999;85.02
66666;BME280;53566;50.814;20.688;2022-07-09T06:36:27;102132.99;;;15.34;84.45
66666;BME280;53566;50.814;20.688;2022-07-09T06:42:09;102139.32;;;15.5;83.58
66666;BME280;53566;50.814;20.688;2022-07-09T06:49:03;102121.69;;;15.65;83.68
66666;BME280;53566;50.814;20.688;2022-07-09T06:56:02;102034.47;;;15.87;82.0
66666;BME280;53566;50.814;20.688;2022-07-09T07:00:04;102138.32;;;15.92;82.69
66666;BME280;53566;50.814;20.688;2022-07-09T07:07:20;102091.55;;;15.93;82.1
66666;BME280;53566;50.814;20.688;2022-07-09T07:14:14;102164.25;;;15.9;82.7
66666;BME280;53566;50.814;20.688;2022-07-09T07:21:05;102012.75;;;15.97;82.37
66666;BME280;53566;50.814;20.688;2022-07-09T07:28:17;101987.36;;;16.04;81.83999999999999
66666;BME280;53566;50.814;20.688;2022-07-09T07:35:13;102070.4;;;16.14;81.13
66666;BME280;53566;50.814;20.688;2022-07-09T07:42:11;102111.83;;;16.169999999999998;81.02
66666;BME280;53566;50.814;20.688;2022-07-09T07:49:21;102057.7;;;16.330000000000002;81.28
66666;BME280;53566;50.814;20.688;2022-07-09T07:56:08;102012.75;;;16.57;80.10000000000001
66666;BME280;53566;50.814;20.688;2022-07-09T08:00:02;102048.25;;;16.669999999999998;80.0
66666;BME280;53566;50.814;20.688;2022-07-09T08:07:02;102061.35;;;17.0;79.42
66666;BME280;53566;50.814;20.688;2022-07-09T08:14:10;102053.96;;;17.34;79.45
66666;BME280;53566;50.814;20.688;2022-07-09T08:21:17;102025.45;;;17.740000000000002;78.54
66666;BME280;53566;50.814;20.688;2022-07-09T08:28:07;102155.58;;;17.830000000000002;78.57
66666;BME280;53566;50.814;20.688;2022-07-09T08:35:13;102033.99;;;18.38;77.64999999999999
66666;BME280;53566;50.814;20.688;2022-07-09T08:42:12;102013.32;;;18.51;77.10000000000001
66666;BME280;53566;50.814;20.688;2022-07-09T08:49:05;102157.62;;;18.729999999999997;76.93
66666;BME280;53566;50.814;20.688;2022-07-09T08:56:02;102017.31;;;18.88;75.92
66666;BME280;53566;50.814;20.688;2022-07-09T09:00:05;102070.97;;;19.07;75.2
66666;BME280;53566;50.814;20.688;2022-07-09T09:07:15;102087.12;;;19.099999999999998;74.85
66666;BME280;53566;50.814;20.688;2022-07-09T09:14:06;102082.45;;;19.14;74.62
66666;BME280;53566;50.814;20.688;2022-07-09T09:21:31;101978.4;;;19.26;73.75999999999999
66666;BME280;53566;50.814;20.688;2022-07-09T09:28:05;101976.33;;;19.3;73.21
66666;BME280;53566;50.814;20.688;2022-07-09T09:35:11;101981.49;;;19.11;73.17999999999999
66666;BME280;53566;50.814;20.688;2022-07-09T09:42:30;101945.38;;;19.04;72.46
66666;BME280;53566;50.814;20.688;2022-07-09T09:49:18;102023.01;;;19.17;72.1
66666;BME280;53566;50.814;20.688;2022-07-09T09:56:25;101977.48;;;19.11;71.33
66666;BME280;53566;50.814;20.688;2022-07-09T10:00:22;102055.77;;;19.279999999999998;71.31
66666;BME280;53566;50.814;20.688;2022-07-09T10:07:15;102094.69;;;19.220000000000002;70.69999999999999
66666;BME280;53566;50.814;20.688;2022-07-09T10:14:30;101921.88;;;19.45;70.42
66666;BME280;53566;50.814;20.688;2022-07-09T10:21:04;101941.71;;;19.55;69.61
66666;BME280;53566;50.814;20.688;2022-07-09T10:28:19;101910.33;;;19.77;69.50999999999999
66666;BME280;53566;50.814;20.688;2022-07-09T10:35:26;101933.17;;;20.08;69.07
66666;BME280;53566;50.814;20.688;2022-07-09T10:42:23;101897.31;;;20.14;68.53
66666;BME280;53566;50.814;20.688;2022-07-09T10:49:03;102051.69;;;20.24;68.24000000000001
66666;BME280;53566;50.814;20.688;2022-07-09T10:56:18;101902.94;;;20.49;67.83000000000001
66666;BME280;53566;50.814;20.688;2022-07-09T11:00:23;101859.1;;;20.580000000000002;67.91
66666;BME280;53566;50.814;20.688;2022-07-09T11:07:03;102025.8;;;20.61;67.41
66666;BME280;53566;50.814;20.688;2022-07-09T11:14:16;102021.8;;;20.59;66.95
66666;BME280;53566;50.814;20.688;2022-07-09T11:21:27;101893.46;;;20.53;66.54
66666;BME280;53566;50.814;20.688;2022-07-09T11:28:07;101991.98;;;20.55;66.32
66666;BME280;53566;50.814;20.688;2022-07-09T11:35:26;101996.81;;;20.53;65.91
66666;BME280;53566;50.814;20.688;2022-07-09T11:42:04;101895.89;;;20.55;65.64
66666;BME280;53566;50.814;20.688;2022-07-09T11:49:48;101815.66;;;20.64;65.27
66666;BME280;53566;50.814;20.688;2022-07-09T11:56:11;101884.81;;;20.79;65.3
66666;BME280;53566;50.814;20.688;2022-07-09T12:00:34;101868.51;;;20.76;64.79
66666;BME280;53566;50.814;20.688;2022-07-09T12:07:09;101863.54;;;20.86;64.63
66666;BME280;53566;50.814;20.688;2022-07-09T12:14:03;101782.47;;;21.05;64.59
66666;BME280;53566;50.814;20.688;2022-07-09T12:21:17;101820.51;;;20.92;63.61000000000001
66666;BME280;53566;50.814;20.688;2022-07-09T12:28:16;101901.7;;;20.96;63.410000000000004
66666;BME280;53566;50.814;20.688;2022-07-09T12:35:03;101929.21;;;21.169999999999998;63.31
66666;BME280;53566;50.814;20.688;2022-07-09T12:42:06;101935.47;;;21.16;63.27
66666;BME280;53566;50.814;20.688;2022-07-09T12:49:18;101903.83;;;21.13;62.98
66666;BME280;53566;50.814;20.688;2022-07-09T12:56:02;101844.92;;;21.1;62.79
66666;BME280;53566;50.814;20.688;2022-07-09T13:00:10;101892.22;;;21.05;62.7
66666;BME280;53566;50.814;20.688;2022-07-09T13:07:03;101830.34;;;20.9;63.24
66666;BME280;53566;50.814;20.688;2022-07-09T13:14:06;101888.68;;;21.02;63.14
66666;BME280;53566;50.814;20.688;2022-07-09T13:21:03;101813.71;;;20.900000000000002;63.470000000000006
66666;BME280;53566;50.814;20.688;2022-07-09T13:28:04;101793.09;;;20.78;63.26
66666;BME280;53566;50.814;20.688;2022-07-09T13:35:02;101835.33;;;20.7;63.84
66666;BME280;53566;50.814;20.688;2022-07-09T13:42:02;101877.12;;;20.599999999999998;63.790000000000006
66666;BME280;53566;50.814;20.688;2022-07-09T13:49:05;101821.26;;;20.669999999999998;64.17
66666;BME280;53566;50.814;20.688;2022-07-09T13:56:21;101730.97;;;20.43;64.17
66666;BME280;53566;50.814;20.688;2022-07-09T14:00:02;101828.08;;;20.37;64.57
66666;BME280;53566;50.814;20.688;2022-07-09T14:07:05;101706.94;;;20.46;64.51
66666;BME280;53566;50.814;20.688;2022-07-09T14:14:02;101707.83;;;20.53;64.33
66666;BME280;53566;50.814;20.688;2022-07-09T14:21:13;101644.55;;;20.380000000000003;64.25
66666;BME280;53566;50.814;20.688;2022-07-09T14:28:16;101669.78;;;20.57;64.19
66666;BME280;53566;50.814;20.688;2022-07-09T14:35:15;101657.15;;;20.43;64.04
66666;BME280;53566;50.814;20.688;2022-07-09T14:42:18;101761.57;;;20.51;63.910000000000004
66666;BME280;53566;50.814;20.688;2022-07-09T14:49:05;101684.95;;;20.529999999999998;63.93
66666;BME280;53566;50.814;20.688;2022-07-09T14:56:18;101770.42;;;20.35;63.9
66666;BME280;53566;50.814;20.688;2022-07-09T15:00:13;101628.26;;;20.34;63.57
66666;BME280;53566;50.814;20.688;2022-07-09T15:07:19;101648.93;;;20.31;63.93
66666;BME280;53566;50.814;20.688;2022-07-09T15:14:16;101610.81;;;20.330000000000002;63.32
66666;BME280;53566;50.814;20.688;2022-07-09T15:21:08;101650.08;;;20.25;63.2
66666;BME280;53566;50.814;20.688;2022-07-09T15:28:18;101645.82;;;20.18;62.440000000000005
66666;BME280;53566;50.814;20.688;2022-07-09T15:35:19;101730.59;;;20.189999999999998;61.87
66666;BME280;53566;50.814;20.688;2022-07-09T15:42:03;101685.5;;;20.279999999999998;61.61
66666;BME280;53566;50.814;20.688;2022-07-09T15:49:22;101640.59;;;20.240000000000002;61.56
66666;BME280;53566;50.814;20.688;2022-07-09T15:56:18;101658.33;;;20.16;60.849999999999994
66666;BME280;53566;50.814;20.688;2022-07-09T16:00:11;101719.15;;;20.2;60.690000000000005
66666;BME280;53566;50.814;20.688;2022-07-09T16:07:17;101583.75;;;20.21;60.25
66666;BME280;53566;50.814;20.688;2022-07-09T16:14:09;101688.17;;;20.22;59.98
66666;BME280;53566;50.814;20.688;2022-07-09T16:21:15;101667.44;;;20.13;59.66
66666;BME280;53566;50.814;20.688;2022-07-09T16:28:17;101654.8;;;20.119999999999997;59.87
66666;BME280;53566;50.814;20.688;2022-07-09T16:35:23;101632.54;;;20.11;59.67
66666;BME280;53566;50.814;20.688;2022-07-09T16:42:16;101622.6;;;20.130000000000003;59.76
66666;BME280;53566;50.814;20.688;2022-07-09T16:49:02;101617.96;;;20.029999999999998;59.65
66666;BME280;53566;50.814;20.688;2022-07-09T16:56:14;101635.83;;;19.94;60.23
66666;BME280;53566;50.814;20.688;2022-07-09T17:00:13;101673.16;;;19.85;60.19
66666;BME280;53566;50.814;20.688;2022-07-09T17:07:02;101588.02;;;19.91;60.78
66666;BME280;53566;50.814;20.688;2022-07-09T17:14:04;101567.99;;;19.84;60.98
66666;BME280;53566;50.814;20.688;2022-07-09T17:21:20;101584.24;;;19.740000000000002;61.57
66666;BME280;53566;50.814;20.688;2022-07-09T17:28:17;101588.88;;;19.61;61.68
66666;BME280;53566;50.814;20.688;2022-07-09T17:35:22;101675.31;;;19.51;62.05
66666;BME280;53566;50.814;20.688;2022-07-09T17:42:06;101601.31;;;19.35;62.61
66666;BME280;53566;50.814;20.688;2022-07-09T17:49:03;101665.68;;;19.25;62.61
66666;BME280;53566;50.814;20.688;2022-07-09T17:56:05;101653.68;;;19.270000000000003;62.94
66666;BME280;53566;50.814;20.688;2022-07-09T18:00:04;101583.55;;;19.04;63.18
66666;BME280;53566;50.814;20.688;2022-07-09T18:07:15;101679.25;;;18.849999999999998;63.25
66666;BME280;53566;50.814;20.688;2022-07-09T18:14:14;101711.72;;;18.82;63.89
66666;BME280;53566;50.814;20.688;2022-07-09T18:21:05;101558.41;;;18.48;64.53
66666;BME280;53566;50.814;20.688;2022-07-09T18:28:20;101727.65;;;18.419999999999998;64.69
66666;BME280;53566;50.814;20.688;2022-07-09T18:35:07;101653.6;;;18.080000000000002;65.59
66666;BME280;53566;50.814;20.688;2022-07-09T18:42:13;101609.45;;;18.029999999999998;65.43
66666;BME280;53566;50.814;20.688;2022-07-09T18:49:20;101654.12;;;17.830000000000002;65.81
66666;BME280;53566;50.814;20.688;2022-07-09T18:56:08;101635.9;;;17.580000000000002;66.33
66666;BME280;53566;50.814;20.688;2022-07-09T19:00:27;101545.31;;;17.57;66.67
66666;BME280;53566;50.814;20.688;2022-07-09T19:07:02;101579.76;;;17.67;66.27
66666;BME280;53566;50.814;20.688;2022-07-09T19:14:14;101747.25;;;17.509999999999998;67.28
66666;BME280;53566;50.814;20.688;2022-07-09T19:21:04;101747.81;;;17.18;67.81
66666;BME280;53566;50.814;20.688;2022-07-09T19:28:04;101711.12;;;17.16;68.39
66666;BME280;53566;50.814;20.688;2022-07-09T19:35:04;101559.83;;;16.830000000000002;68.96
66666;BME280;53566;50.814;20.688;2022-07-09T19:42:03;101640.4;;;16.759999999999998;69.28
66666;BME280;53566;50.814;20.688;2022-07-09T19:49:18;101610.25;;;16.59;69.35
66666;BME280;53566;50.814;20.688;2022-07-09T19:56:04;101595.37;;;16.4;70.24
66666;BME280;53566;50.814;20.688;2022-07-09T20:00:02;101721.76;;;16.34;70.39
66666;BME280;53566;50.814;20.688;2022-07-09T20:07:20;101665.01;;;16.1;70.82
66666;BME280;53566;50.814;20.688;2022-07-09T20:14:14;101628.6;;;15.95;71.27
66666;BME280;53566;50.814;20.688;2022-07-09T20:21:19;101576.14;;;16.02;71.09
66666;BME280;53566;50.814;20.688;2022-07-09T20:28:04;101715.39;;;15.9;71.05
66666;BME280;53566;50.814;20.688;2022-07-09T20:35:18;101678.55;;;15.68;71.21
66666;BME280;53566;50.814;20.688;2022-07-09T20:42:14;101658.91;;;15.58;71.24
66666;BME280;53566;50.814;20.688;2022-07-09T20:49:02;101738.72;;;15.44;71.49
66666;BME280;53566;50.814;20.688;2022-07-09T20:56:16;101719.38;;;15.370000000000001;71.54
66666;BME280;53566;50.814;20.688;2022-07-09T21:00:07;101622.53;;;15.24;71.88
66666;BME280;53566;50.814;20.688;2022-07-09T21:07:17;101574.4;;;15.18;72.06
66666;BME280;53566;50.814;20.688;2022-07-09T21:14:13;101577.37;;;15.129999999999999;72.15
66666;BME280;53566;50.814;20.688;2022-07-09T21:21:03;101570.17;;;14.9;72.08000000000001
66666;BME280;53566;50.814;20.688;2022-07-09T21:28:18;101568.75;;;14.75;72.51
66666;BME280;53566;50.814;20.688;2022-07-09T21:35:22;101564.86;;;14.53;72.31
66666;BME280;53566;50.814;20.688;2022-07-09T21:42:13;101658.9;;;14.47;72.94
66666;BME280;53566;50.814;20.688;2022-07-09T21:49:04;101632.06;;;14.41;73.08
66666;BME280;53566;50.814;20.688;2022-07-09T21:56:09;101577.2;;;13.94;74.51
66666;BME280;53566;50.814;20.688;2022-07-09T22:00:46;101545.61;;;13.85;74.92
66666;BME280;53566;50.814;20.688;2022-07-09T22:07:15;101623.01;;;13.889999999999999;75.19
66666;BME280;53566;50.814;20.688;2022-07-09T22:14:17;101569.48;;;13.84;75.54
66666;BME280;53566;50.814;20.688;2022-07-09T22:21:16;101646.47;;;13.75;75.58
66666;BME280;53566;50.814;20.688;2022-07-09T22:28:04;101590.21;;;13.58;76.19999999999999
66666;BME280;53566;50.814;20.688;2022-07-09T22:35:16;101712.63;;;13.49;76.97999999999999
66666;BME280;53566;50.814;20.688;2022-07-09T22:42:15;101529.47;;;13.319999999999999;76.91
66666;BME280;53566;50.814;20.688;2022-07-09T22:49:21;101674.09;;;13.299999999999999;77.22
66666;BME280;53566;50.814;20.688;2022-07-09T22:56:04;101692.25;;;13.33;77.14
66666;BME280;53566;50.814;20.688;2022-07-09T23:00:02;101705.94;;;13.25;77.75
66666;BME280;53566;50.814;20.688;2022-07-09T23:07:03;101686.33;;;13.19;77.97
66666;BME280;53566;50.814;20.688;2022-07-09T23:14:05;101654.43;;;13.03;78.61
66666;BME280;53566;50.814;20.688;2022-07-09T23:21:18;101663.07;;;12.93;78.76
66666;BME280;53566;50.814;20.688;2022-07-09T23:28:02;101677.69;;;12.87;79.07
66666;BME280;53566;50.814;20.688;2022-07-09T23:35:05;101526.91;;;12.76;79.83
66666;BME280;53566;50.814;20.688;2022-07-09T23:42:14;101704.82;;;12.67;80.06
66666;BME280;53566;50.814;20.688;2022-07-09T23:49:05;101646.88;;;12.66;80.49000000000001
66666;BME280;53566;50.814;20.688;2022-07-09T23:56:06;101699.46;;;12.45;81.68
